ADDS METAR Data INFO
IDs: Format: Raw Decoded Include TAF

Data at: 1846 UTC 17 Oct 2017

KUKF 171820Z AUTO 13004KT 10SM CLR 16/02 A3037 RMK AO2
KUKF 171800Z AUTO 00000KT 10SM CLR 16/03 A3037 RMK AO2
KUKF 171740Z AUTO 00000KT 10SM CLR 15/02 A3039 RMK AO2
KUKF 171720Z AUTO 24003KT 10SM CLR 15/02 A3039 RMK AO2
KUKF 171700Z AUTO 00000KT 10SM CLR 15/02 A3040 RMK AO2
KUKF 171640Z AUTO 01003KT 10SM CLR 15/01 A3041 RMK AO2
KUKF 171620Z AUTO 06006KT 10SM CLR 15/02 A3042 RMK AO2
KUKF 171600Z AUTO 03003KT 10SM CLR 14/01 A3042 RMK AO2
KUKF 171540Z AUTO 01006KT 10SM CLR 13/01 A3043 RMK AO2
KUKF 171520Z AUTO 00000KT 10SM CLR 13/03 A3043 RMK AO2
KUKF 171500Z AUTO 07004KT 10SM CLR 12/02 A3043 RMK AO2
KUKF 171440Z AUTO 04003KT 10SM CLR 12/03 A3044 RMK AO2
KUKF 171420Z AUTO 00000KT 10SM CLR 11/06 A3044 RMK AO2
KUKF 171400Z AUTO 00000KT 10SM CLR 09/06 A3044 RMK AO2
KUKF 171340Z AUTO 00000KT 10SM CLR 07/06 A3043 RMK AO2
KUKF 171320Z AUTO 00000KT 10SM CLR 06/05 A3043 RMK AO2
KUKF 171300Z AUTO 00000KT 10SM CLR 05/05 A3042 RMK AO2
KUKF 171240Z AUTO 00000KT 10SM CLR 03/03 A3042 RMK AO2
KUKF 171220Z AUTO 00000KT 10SM CLR 02/02 A3041 RMK AO2
KUKF 171200Z AUTO 00000KT 10SM CLR 02/02 A3040 RMK AO2
KUKF 171140Z AUTO 00000KT 10SM CLR 02/02 A3039 RMK AO2
KUKF 171120Z AUTO 00000KT 10SM CLR 02/02 A3039 RMK AO2
KUKF 171100Z AUTO 00000KT 10SM CLR 02/02 A3039 RMK AO2
KUKF 171040Z AUTO 00000KT 10SM CLR 02/02 A3038 RMK AO2
KUKF 171020Z AUTO 00000KT 10SM CLR 02/02 A3038 RMK AO2
KUKF 171000Z AUTO 00000KT 10SM CLR 02/02 A3037 RMK AO2
KUKF 170940Z AUTO 00000KT 10SM CLR 02/02 A3036 RMK AO2
KUKF 170920Z AUTO 00000KT 10SM CLR 03/03 A3036 RMK AO2
KUKF 170900Z AUTO 00000KT 10SM CLR 02/02 A3035 RMK AO2
KUKF 170840Z AUTO 00000KT 10SM CLR 03/03 A3035 RMK AO2
KUKF 170820Z AUTO 00000KT 10SM CLR 03/03 A3034 RMK AO2
KUKF 170800Z AUTO 00000KT 10SM CLR 03/03 A3033 RMK AO2
KUKF 170740Z AUTO 00000KT 10SM CLR 03/03 A3033 RMK AO2
KUKF 170720Z AUTO 00000KT 10SM CLR 03/03 A3033 RMK AO2
KUKF 170700Z AUTO 00000KT 10SM CLR 03/03 A3034 RMK AO2
KUKF 170640Z AUTO 00000KT 10SM CLR 03/03 A3034 RMK AO2
KUKF 170620Z AUTO 00000KT 10SM CLR 03/03 A3033 RMK AO2
KUKF 170600Z AUTO 00000KT 10SM CLR 04/04 A3033 RMK AO2
KUKF 170540Z AUTO 00000KT 10SM CLR 05/05 A3034 RMK AO2
KUKF 170520Z AUTO 00000KT 10SM CLR 05/04 A3033 RMK AO2
KUKF 170500Z AUTO 00000KT 10SM CLR 05/05 A3033 RMK AO2
KUKF 170440Z AUTO 00000KT 10SM CLR 05/05 A3033 RMK AO2
KUKF 170420Z AUTO 00000KT 10SM CLR 05/05 A3033 RMK AO2
KUKF 170400Z AUTO 24003KT 10SM CLR 06/04 A3033 RMK AO2
KUKF 170340Z AUTO 00000KT 10SM CLR 06/04 A3034 RMK AO2
KUKF 170320Z AUTO 00000KT 10SM CLR 07/03 A3034 RMK AO2
KUKF 170300Z AUTO 36003KT 10SM CLR 06/03 A3033 RMK AO2
KUKF 170240Z AUTO 00000KT 10SM CLR 07/03 A3033 RMK AO2
KUKF 170220Z AUTO 00000KT 10SM CLR 07/03 A3032 RMK AO2
KUKF 170200Z AUTO 00000KT 10SM CLR 07/04 A3031 RMK AO2
KUKF 170140Z AUTO 00000KT 10SM CLR 08/04 A3031 RMK AO2
KUKF 170120Z AUTO 00000KT 10SM CLR 08/03 A3030 RMK AO2
KUKF 170100Z AUTO 36004KT 10SM CLR 10/03 A3029 RMK AO2
KUKF 170040Z AUTO 02005KT 10SM CLR 10/03 A3029 RMK AO2
KUKF 170020Z AUTO 02004KT 10SM CLR 10/03 A3028 RMK AO2
KUKF 170000Z AUTO 36003KT 10SM CLR 10/03 A3027 RMK AO2
KUKF 162340Z AUTO 34004KT 10SM CLR 11/03 A3027 RMK AO2
KUKF 162320Z AUTO 35003KT 10SM CLR 11/03 A3026 RMK AO2
KUKF 162300Z AUTO 36003KT 10SM CLR 12/03 A3024 RMK AO2
KUKF 162240Z AUTO 36005KT 10SM CLR 13/02 A3024 RMK AO2
KUKF 162220Z AUTO 36008KT 10SM CLR 14/02 A3023 RMK AO2
KUKF 162200Z AUTO 33004G15KT 10SM CLR 15/03 A3022 RMK AO2
KUKF 162140Z AUTO 35010G16KT 10SM CLR 15/03 A3021 RMK AO2
KUKF 162120Z AUTO 34007KT 10SM CLR 16/03 A3020 RMK AO2
KUKF 162100Z AUTO 33006G14KT 10SM CLR 16/04 A3020 RMK AO2
KUKF 162040Z AUTO 33009G16KT 300V360 10SM CLR 16/04 A3020 RMK AO2
KUKF 162020Z AUTO 32007G16KT 10SM CLR 16/05 A3020 RMK AO2
KUKF 162000Z AUTO 35011G18KT 10SM CLR 16/03 A3020 RMK AO2
KUKF 161940Z AUTO 34010G19KT 10SM CLR 16/04 A3020 RMK AO2
KUKF 161920Z AUTO 34010G19KT 10SM CLR 16/04 A3020 RMK AO2
KUKF 161900Z AUTO 34012G20KT 300V020 10SM CLR 16/04 A3020 RMK AO2
KUKF 161840Z AUTO 34010G17KT 10SM CLR 16/05 A3019 RMK AO2
KUKF 161820Z AUTO 33008G18KT 10SM CLR 17/05 A3019 RMK AO2
KUKF 161800Z AUTO 36012G23KT 330V030 10SM CLR 16/05 A3019 RMK AO2
KUKF 161740Z AUTO 34010G20KT 10SM CLR 17/05 A3020 RMK AO2
KUKF 161720Z AUTO 36005KT 10SM CLR 17/06 A3020 RMK AO2
KUKF 161700Z AUTO 02008KT 10SM CLR 16/05 A3020 RMK AO2
KUKF 161640Z AUTO 35005KT 10SM CLR 15/05 A3020 RMK AO2
KUKF 161620Z AUTO 36007KT 10SM CLR 15/06 A3020 RMK AO2
KUKF 161600Z AUTO 34008KT 10SM SCT036 15/06 A3020 RMK AO2
KUKF 161540Z AUTO 35007KT 10SM BKN036 15/07 A3019 RMK AO2
KUKF 161520Z AUTO 36011G15KT 10SM SCT036 16/07 A3019 RMK AO2
KUKF 161500Z AUTO 01010KT 10SM SCT032 16/08 A3018 RMK AO2
KUKF 161440Z AUTO 01004KT 10SM SCT032 15/08 A3018 RMK AO2
KUKF 161420Z AUTO 34004KT 10SM CLR 15/08 A3017 RMK AO2
KUKF 161400Z AUTO 31008KT 10SM CLR 14/08 A3018 RMK AO2
KUKF 161340Z AUTO 31009G15KT 10SM SCT026 14/10 A3018 RMK AO2
KUKF 161320Z AUTO 00000KT 10SM SCT032 13/10 A3017 RMK AO2
KUKF 161300Z AUTO 00000KT 10SM SCT029 SCT035 13/10 A3016 RMK AO2
KUKF 161240Z AUTO 00000KT 10SM CLR 13/11 A3015 RMK AO2
KUKF 161220Z AUTO 33009G16KT 10SM CLR 13/11 A3013 RMK AO2
KUKF 161200Z AUTO 35005KT 10SM SCT049 13/13 A3012 RMK AO2
KUKF 161140Z AUTO 35006KT 10SM BKN049 14/14 A3012 RMK AO2
KUKF 161120Z AUTO 33005KT 10SM SCT023 SCT037 OVC049 14/14 A3011 RMK AO2
KUKF 161100Z AUTO 34003KT 10SM -RA SCT018 BKN024 OVC110 15/15 A3010 RMK AO2
KUKF 161040Z AUTO 00000KT 10SM -RA OVC120 15/15 A3008 RMK AO2
KUKF 161020Z AUTO 00000KT 10SM RA SCT007 BKN120 16/16 A3008 RMK AO2
KUKF 161000Z AUTO 00000KT 10SM -DZ SCT009 BKN041 OVC120 16/16 A3008 RMK AO2
KUKF 160940Z AUTO 00000KT 10SM DZ SCT011 BKN037 OVC075 16/16 A3007 RMK AO2 LTG DSNT S
KUKF 160920Z AUTO 00000KT 5SM +RA SCT024 SCT035 OVC060 16/16 A3005 RMK AO2
KUKF 160900Z AUTO 31005KT 5SM RA OVC060 16/16 A3005 RMK AO2
KUKF 160840Z AUTO 30003KT 7SM RA OVC060 17/17 A3006 RMK AO2
KUKF 160820Z AUTO 29004KT 7SM -RA BKN060 OVC070 17/17 A3005 RMK AO2
KUKF 160800Z AUTO 00000KT 10SM -RA OVC060 18/18 A3004 RMK AO2
KUKF 160740Z AUTO 00000KT 10SM -RA SCT050 OVC060 18/18 A3005 RMK AO2
KUKF 160720Z AUTO 00000KT 10SM SCT043 BKN050 OVC065 18/18 A3004 RMK AO2
KUKF 160700Z AUTO 00000KT 10SM -DZ SCT006 SCT026 OVC043 18/18 A3004 RMK AO2